Watertown, WI

9:22 PM CDT on October 20, 2014 (GMT -0500)
Hunter Oaks Subdivision | Change Station
CLOSE
Current Station
Personal Weather Station
Location: Watertown, WI
Elevation: 840 ft
Nearby Weather Stations

Elev 840 ft 43.18 °N, 88.76 °W | Updated 0 second ago

Overcast
Overcast
50.0 °F
Feels Like 50.0 °F
N
0.0
Wind Variable Wind from ESE
Gusts 3.1 mph

Today
High -- | Low -- °F
--% Chance of Precip.
Yesterday
High -- | Low -- °F
Precip. -- in
7:14 AM 6:03 PM
Waning Crescent, 8% visible
Pressure 30.01 in
Visibility 10.0 miles
Clouds Overcast 4800 ft
Dew Point 44 °F
Humidity 79%
Rainfall 0.00 in
Snow Depth Not available.
UV 0 out of 12
Pollen 1.80 out of 12
Air Quality Not available.
Flu Activity Sporadic
METAR KRYV 210215Z AUTO 00000KT 10SM OVC048 10/06 A3001 RMK AO2 T00960063

More Conditions Fewer Conditions

Pressure 30.01 in
Visibility 10.0 miles
Clouds Overcast 4800 ft
Dew Point 44 °F
Humidity 79%
Rainfall 0.00 in
Snow Depth Not available.
UV 0 out of 12
Pollen 1.80 out of 12
Air Quality Not available.
Flu Activity Sporadic
METAR KRYV 210215Z AUTO 00000KT 10SM OVC048 10/06 A3001 RMK AO2 T00960063

More Conditions Fewer Conditions

10-Day Weather Forecast

Almanac

Astronomy

Oct. 20, 2014 Rise Set
Actual Time 7:14 AM CDT 6:03 PM CDT
Civil Twilight 6:45 AM CDT 6:32 PM CDT
Nautical Twilight 6:12 AM CDT 7:05 PM CDT
Astronomical Twilight 5:39 AM CDT 7:38 PM CDT
Moon 3:57 AM CDT (10/20) 4:30 PM CDT (10/20)
Length of Visible Light 11h 47m
Length of Day
10h 49m
Tomorrow will be 2m 48s shorter.
Waning Crescent, 8% of the Moon is Illuminated
Today
Waning Crescent
Oct 23
New
Oct 30
First Quarter
Nov 6
Full
Nov 14
Last Quarter

Today's Extremes

State Highs State Lows

Community

WunderPhotos

Upload Photos

1,763,575 photos uploaded!

Nearby

Snow Depth

Station Depth Elevation
No new snow has been reported.

Earthquake Activity

City Distance Mag. Time & Date
No recent earthquake activity has been reported nearby.
Minimum magnitude displayed is 2.5.

Coastal Water Temperatures

Place Temperature
No Stations Reporting

Nearby Weather Stations